sensor_id;sensor_type;location;lat;lon;timestamp;temperature;humidity
6556;DHT22;3311;48.32423000;14.29074500;2023-05-10T00:02:10;17.90;51.30
6556;DHT22;3311;48.32423000;14.29074500;2023-05-10T00:04:37;17.90;51.30
6556;DHT22;3311;48.32423000;14.29074500;2023-05-10T00:07:04;17.90;51.20
6556;DHT22;3311;48.32423000;14.29074500;2023-05-10T00:09:32;17.90;51.10
6556;DHT22;3311;48.32423000;14.29074500;2023-05-10T00:12:00;17.90;51.20
6556;DHT22;3311;48.32423000;14.29074500;2023-05-10T00:14:28;18.00;51.30
6556;DHT22;3311;48.32423000;14.29074500;2023-05-10T00:16:55;18.00;51.10
6556;DHT22;3311;48.32423000;14.29074500;2023-05-10T00:19:23;17.90;51.20
6556;DHT22;3311;48.32423000;14.29074500;2023-05-10T00:21:51;18.00;51.10
6556;DHT22;3311;48.32423000;14.29074500;2023-05-10T00:24:18;18.00;51.00
6556;DHT22;3311;48.32423000;14.29074500;2023-05-10T00:26:45;17.90;51.00
6556;DHT22;3311;48.32423000;14.29074500;2023-05-10T00:29:12;17.90;51.10
6556;DHT22;3311;48.32423000;14.29074500;2023-05-10T00:31:41;17.80;51.00
6556;DHT22;3311;48.32423000;14.29074500;2023-05-10T00:34:08;17.80;51.00
6556;DHT22;3311;48.32423000;14.29074500;2023-05-10T00:36:36;17.80;51.00
6556;DHT22;3311;48.32423000;14.29074500;2023-05-10T00:39:03;17.80;51.10
6556;DHT22;3311;48.32423000;14.29074500;2023-05-10T00:41:31;17.80;51.00
6556;DHT22;3311;48.32423000;14.29074500;2023-05-10T00:43:58;17.70;51.10
6556;DHT22;3311;48.32423000;14.29074500;2023-05-10T00:46:27;17.80;51.00
6556;DHT22;3311;48.32423000;14.29074500;2023-05-10T00:48:55;17.70;50.80
6556;DHT22;3311;48.32423000;14.29074500;2023-05-10T00:51:23;17.70;50.90
6556;DHT22;3311;48.32423000;14.29074500;2023-05-10T00:53:51;17.70;51.20
6556;DHT22;3311;48.32423000;14.29074500;2023-05-10T00:56:18;17.70;51.30
6556;DHT22;3311;48.32423000;14.29074500;2023-05-10T00:58:48;17.70;51.00
6556;DHT22;3311;48.32423000;14.29074500;2023-05-10T01:01:16;17.60;51.30
6556;DHT22;3311;48.32423000;14.29074500;2023-05-10T01:03:44;17.60;51.30
6556;DHT22;3311;48.32423000;14.29074500;2023-05-10T01:06:12;17.50;51.40
6556;DHT22;3311;48.32423000;14.29074500;2023-05-10T01:08:40;17.60;51.40
6556;DHT22;3311;48.32423000;14.29074500;2023-05-10T01:11:07;17.60;51.10
6556;DHT22;3311;48.32423000;14.29074500;2023-05-10T01:13:37;17.60;51.50
6556;DHT22;3311;48.32423000;14.29074500;2023-05-10T01:16:06;17.60;51.10
6556;DHT22;3311;48.32423000;14.29074500;2023-05-10T01:18:36;17.60;51.30
6556;DHT22;3311;48.32423000;14.29074500;2023-05-10T01:21:20;17.60;51.10
6556;DHT22;3311;48.32423000;14.29074500;2023-05-10T01:27:25;17.50;51.40
6556;DHT22;3311;48.32423000;14.29074500;2023-05-10T01:33:01;17.60;51.20
6556;DHT22;3311;48.32423000;14.29074500;2023-05-10T01:35:37;17.50;50.90
6556;DHT22;3311;48.32423000;14.29074500;2023-05-10T01:38:10;17.50;51.30
6556;DHT22;3311;48.32423000;14.29074500;2023-05-10T01:40:46;17.50;51.60
6556;DHT22;3311;48.32423000;14.29074500;2023-05-10T01:43:19;17.50;51.30
6556;DHT22;3311;48.32423000;14.29074500;2023-05-10T01:45:57;17.50;51.20
6556;DHT22;3311;48.32423000;14.29074500;2023-05-10T01:48:29;17.50;51.20
6556;DHT22;3311;48.32423000;14.29074500;2023-05-10T01:50:58;17.40;51.40
6556;DHT22;3311;48.32423000;14.29074500;2023-05-10T01:53:26;17.40;51.50
6556;DHT22;3311;48.32423000;14.29074500;2023-05-10T01:55:55;17.40;51.50
6556;DHT22;3311;48.32423000;14.29074500;2023-05-10T01:58:27;17.40;51.70
6556;DHT22;3311;48.32423000;14.29074500;2023-05-10T02:00:55;17.40;51.60
6556;DHT22;3311;48.32423000;14.29074500;2023-05-10T02:03:24;17.30;51.60
6556;DHT22;3311;48.32423000;14.29074500;2023-05-10T02:05:55;17.30;51.60
6556;DHT22;3311;48.32423000;14.29074500;2023-05-10T02:08:24;17.30;51.90
6556;DHT22;3311;48.32423000;14.29074500;2023-05-10T02:10:54;17.40;51.90
6556;DHT22;3311;48.32423000;14.29074500;2023-05-10T02:13:23;17.30;52.00
6556;DHT22;3311;48.32423000;14.29074500;2023-05-10T02:15:53;17.20;51.90
6556;DHT22;3311;48.32423000;14.29074500;2023-05-10T02:18:22;17.20;52.10
6556;DHT22;3311;48.32423000;14.29074500;2023-05-10T02:20:53;17.20;51.90
6556;DHT22;3311;48.32423000;14.29074500;2023-05-10T02:23:22;17.20;52.20
6556;DHT22;3311;48.32423000;14.29074500;2023-05-10T02:25:51;17.20;52.10
6556;DHT22;3311;48.32423000;14.29074500;2023-05-10T02:28:21;17.10;51.90
6556;DHT22;3311;48.32423000;14.29074500;2023-05-10T02:30:50;17.00;52.20
6556;DHT22;3311;48.32423000;14.29074500;2023-05-10T02:33:19;17.10;52.50
6556;DHT22;3311;48.32423000;14.29074500;2023-05-10T02:35:47;17.10;52.10
6556;DHT22;3311;48.32423000;14.29074500;2023-05-10T02:38:18;17.10;52.10
6556;DHT22;3311;48.32423000;14.29074500;2023-05-10T02:40:47;17.10;52.10
6556;DHT22;3311;48.32423000;14.29074500;2023-05-10T02:43:16;17.00;52.40
6556;DHT22;3311;48.32423000;14.29074500;2023-05-10T02:45:47;17.00;52.70
6556;DHT22;3311;48.32423000;14.29074500;2023-05-10T02:48:15;17.00;52.90
6556;DHT22;3311;48.32423000;14.29074500;2023-05-10T02:50:44;17.00;53.10
6556;DHT22;3311;48.32423000;14.29074500;2023-05-10T02:53:18;17.00;53.00
6556;DHT22;3311;48.32423000;14.29074500;2023-05-10T02:55:50;17.00;52.70
6556;DHT22;3311;48.32423000;14.29074500;2023-05-10T02:58:18;17.00;52.70
6556;DHT22;3311;48.32423000;14.29074500;2023-05-10T03:00:47;17.00;52.80
6556;DHT22;3311;48.32423000;14.29074500;2023-05-10T03:03:14;17.10;52.90
6556;DHT22;3311;48.32423000;14.29074500;2023-05-10T03:05:41;17.10;52.90
6556;DHT22;3311;48.32423000;14.29074500;2023-05-10T03:08:08;17.00;53.10
6556;DHT22;3311;48.32423000;14.29074500;2023-05-10T03:10:45;17.00;53.00
6556;DHT22;3311;48.32423000;14.29074500;2023-05-10T03:13:29;17.00;53.00
6556;DHT22;3311;48.32423000;14.29074500;2023-05-10T03:16:07;17.00;53.00
6556;DHT22;3311;48.32423000;14.29074500;2023-05-10T03:18:42;17.00;53.20
6556;DHT22;3311;48.32423000;14.29074500;2023-05-10T03:21:11;16.90;53.20
6556;DHT22;3311;48.32423000;14.29074500;2023-05-10T03:23:43;16.80;53.30
6556;DHT22;3311;48.32423000;14.29074500;2023-05-10T03:26:18;16.80;53.30
6556;DHT22;3311;48.32423000;14.29074500;2023-05-10T03:28:48;16.90;53.70
6556;DHT22;3311;48.32423000;14.29074500;2023-05-10T03:31:17;16.80;53.30
6556;DHT22;3311;48.32423000;14.29074500;2023-05-10T03:33:48;16.90;53.40
6556;DHT22;3311;48.32423000;14.29074500;2023-05-10T03:36:15;16.80;53.40
6556;DHT22;3311;48.32423000;14.29074500;2023-05-10T03:38:43;16.80;53.20
6556;DHT22;3311;48.32423000;14.29074500;2023-05-10T03:41:10;16.80;53.50
6556;DHT22;3311;48.32423000;14.29074500;2023-05-10T03:43:39;16.80;53.50
6556;DHT22;3311;48.32423000;14.29074500;2023-05-10T03:46:07;16.80;53.50
6556;DHT22;3311;48.32423000;14.29074500;2023-05-10T03:48:34;16.80;53.70
6556;DHT22;3311;48.32423000;14.29074500;2023-05-10T03:51:01;16.80;53.90
6556;DHT22;3311;48.32423000;14.29074500;2023-05-10T03:53:28;16.70;53.90
6556;DHT22;3311;48.32423000;14.29074500;2023-05-10T03:55:56;16.70;54.40
6556;DHT22;3311;48.32423000;14.29074500;2023-05-10T03:58:23;16.70;54.30
6556;DHT22;3311;48.32423000;14.29074500;2023-05-10T04:00:52;16.60;54.70
6556;DHT22;3311;48.32423000;14.29074500;2023-05-10T04:03:20;16.60;54.90
6556;DHT22;3311;48.32423000;14.29074500;2023-05-10T04:05:47;16.60;55.10
6556;DHT22;3311;48.32423000;14.29074500;2023-05-10T04:08:14;16.70;55.00
6556;DHT22;3311;48.32423000;14.29074500;2023-05-10T04:10:42;16.70;54.90
6556;DHT22;3311;48.32423000;14.29074500;2023-05-10T04:13:09;16.80;55.10
6556;DHT22;3311;48.32423000;14.29074500;2023-05-10T04:15:37;16.90;55.60
6556;DHT22;3311;48.32423000;14.29074500;2023-05-10T04:18:05;16.90;55.40
6556;DHT22;3311;48.32423000;14.29074500;2023-05-10T04:20:32;16.90;55.20
6556;DHT22;3311;48.32423000;14.29074500;2023-05-10T04:23:00;17.00;54.90
6556;DHT22;3311;48.32423000;14.29074500;2023-05-10T04:25:27;16.90;56.10
6556;DHT22;3311;48.32423000;14.29074500;2023-05-10T04:27:54;16.80;56.20
6556;DHT22;3311;48.32423000;14.29074500;2023-05-10T04:30:21;16.80;56.20
6556;DHT22;3311;48.32423000;14.29074500;2023-05-10T04:32:49;16.80;55.90
6556;DHT22;3311;48.32423000;14.29074500;2023-05-10T04:35:18;16.70;56.40
6556;DHT22;3311;48.32423000;14.29074500;2023-05-10T04:37:45;16.70;55.80
6556;DHT22;3311;48.32423000;14.29074500;2023-05-10T04:40:12;16.80;56.20
6556;DHT22;3311;48.32423000;14.29074500;2023-05-10T04:42:40;16.80;55.30
6556;DHT22;3311;48.32423000;14.29074500;2023-05-10T04:45:08;16.80;55.20
6556;DHT22;3311;48.32423000;14.29074500;2023-05-10T04:47:36;16.80;55.60
6556;DHT22;3311;48.32423000;14.29074500;2023-05-10T04:50:05;16.80;55.40
6556;DHT22;3311;48.32423000;14.29074500;2023-05-10T04:52:34;16.80;55.40
6556;DHT22;3311;48.32423000;14.29074500;2023-05-10T04:55:02;16.80;55.80
6556;DHT22;3311;48.32423000;14.29074500;2023-05-10T04:57:29;16.80;56.20
6556;DHT22;3311;48.32423000;14.29074500;2023-05-10T04:59:56;16.80;56.20
6556;DHT22;3311;48.32423000;14.29074500;2023-05-10T05:02:24;16.80;56.10
6556;DHT22;3311;48.32423000;14.29074500;2023-05-10T05:04:51;16.80;56.30
6556;DHT22;3311;48.32423000;14.29074500;2023-05-10T05:07:18;16.80;55.60
6556;DHT22;3311;48.32423000;14.29074500;2023-05-10T05:09:47;16.80;55.40
6556;DHT22;3311;48.32423000;14.29074500;2023-05-10T05:12:14;16.80;55.40
6556;DHT22;3311;48.32423000;14.29074500;2023-05-10T05:14:41;16.80;55.40
6556;DHT22;3311;48.32423000;14.29074500;2023-05-10T05:17:08;16.80;56.20
6556;DHT22;3311;48.32423000;14.29074500;2023-05-10T05:19:36;16.80;55.70
6556;DHT22;3311;48.32423000;14.29074500;2023-05-10T05:22:03;16.80;56.00
6556;DHT22;3311;48.32423000;14.29074500;2023-05-10T05:24:35;16.80;56.90
6556;DHT22;3311;48.32423000;14.29074500;2023-05-10T05:27:05;16.80;57.50
6556;DHT22;3311;48.32423000;14.29074500;2023-05-10T05:29:33;16.60;58.30
6556;DHT22;3311;48.32423000;14.29074500;2023-05-10T05:32:00;16.70;58.30
6556;DHT22;3311;48.32423000;14.29074500;2023-05-10T05:34:27;16.70;58.70
6556;DHT22;3311;48.32423000;14.29074500;2023-05-10T05:36:54;16.70;58.30
6556;DHT22;3311;48.32423000;14.29074500;2023-05-10T05:39:21;16.70;58.70
6556;DHT22;3311;48.32423000;14.29074500;2023-05-10T05:41:49;16.70;58.10
6556;DHT22;3311;48.32423000;14.29074500;2023-05-10T05:44:17;16.70;57.30
6556;DHT22;3311;48.32423000;14.29074500;2023-05-10T05:46:44;16.70;59.10
6556;DHT22;3311;48.32423000;14.29074500;2023-05-10T05:49:12;16.70;58.30
6556;DHT22;3311;48.32423000;14.29074500;2023-05-10T05:51:41;16.70;59.40
6556;DHT22;3311;48.32423000;14.29074500;2023-05-10T05:54:10;16.80;58.10
6556;DHT22;3311;48.32423000;14.29074500;2023-05-10T05:56:37;16.80;57.20
6556;DHT22;3311;48.32423000;14.29074500;2023-05-10T05:59:04;16.90;56.30
6556;DHT22;3311;48.32423000;14.29074500;2023-05-10T06:01:33;17.00;56.30
6556;DHT22;3311;48.32423000;14.29074500;2023-05-10T06:04:00;17.00;56.80
6556;DHT22;3311;48.32423000;14.29074500;2023-05-10T06:06:27;17.00;57.00
6556;DHT22;3311;48.32423000;14.29074500;2023-05-10T06:08:54;17.00;56.30
6556;DHT22;3311;48.32423000;14.29074500;2023-05-10T06:11:22;17.00;56.00
6556;DHT22;3311;48.32423000;14.29074500;2023-05-10T06:13:49;17.00;55.40
6556;DHT22;3311;48.32423000;14.29074500;2023-05-10T06:16:17;17.00;55.40
6556;DHT22;3311;48.32423000;14.29074500;2023-05-10T06:18:46;17.00;55.30
6556;DHT22;3311;48.32423000;14.29074500;2023-05-10T06:21:13;17.00;55.40
6556;DHT22;3311;48.32423000;14.29074500;2023-05-10T06:23:40;17.00;55.50
6556;DHT22;3311;48.32423000;14.29074500;2023-05-10T06:26:07;17.00;55.50
6556;DHT22;3311;48.32423000;14.29074500;2023-05-10T06:28:35;17.00;55.30
6556;DHT22;3311;48.32423000;14.29074500;2023-05-10T06:31:04;17.00;55.30
6556;DHT22;3311;48.32423000;14.29074500;2023-05-10T06:33:32;17.10;55.20
6556;DHT22;3311;48.32423000;14.29074500;2023-05-10T06:36:00;17.10;55.10
6556;DHT22;3311;48.32423000;14.29074500;2023-05-10T06:38:27;17.10;54.80
6556;DHT22;3311;48.32423000;14.29074500;2023-05-10T06:40:54;17.10;55.10
6556;DHT22;3311;48.32423000;14.29074500;2023-05-10T06:43:22;17.10;55.10
6556;DHT22;3311;48.32423000;14.29074500;2023-05-10T06:45:50;17.10;55.00
6556;DHT22;3311;48.32423000;14.29074500;2023-05-10T06:48:18;17.10;55.10
6556;DHT22;3311;48.32423000;14.29074500;2023-05-10T06:50:45;17.10;55.00
6556;DHT22;3311;48.32423000;14.29074500;2023-05-10T06:53:13;17.00;55.20
6556;DHT22;3311;48.32423000;14.29074500;2023-05-10T06:55:41;17.00;55.40
6556;DHT22;3311;48.32423000;14.29074500;2023-05-10T06:58:08;17.00;55.40
6556;DHT22;3311;48.32423000;14.29074500;2023-05-10T07:00:35;17.00;55.50
6556;DHT22;3311;48.32423000;14.29074500;2023-05-10T07:03:06;17.00;55.70
6556;DHT22;3311;48.32423000;14.29074500;2023-05-10T07:05:33;17.00;55.40
6556;DHT22;3311;48.32423000;14.29074500;2023-05-10T07:08:00;17.00;55.30
6556;DHT22;3311;48.32423000;14.29074500;2023-05-10T07:10:29;17.00;55.80
6556;DHT22;3311;48.32423000;14.29074500;2023-05-10T07:12:56;17.00;55.70
6556;DHT22;3311;48.32423000;14.29074500;2023-05-10T07:15:23;17.00;55.50
6556;DHT22;3311;48.32423000;14.29074500;2023-05-10T07:17:50;17.00;55.70
6556;DHT22;3311;48.32423000;14.29074500;2023-05-10T07:20:18;17.00;55.70
6556;DHT22;3311;48.32423000;14.29074500;2023-05-10T07:22:45;17.00;56.10
6556;DHT22;3311;48.32423000;14.29074500;2023-05-10T07:25:12;17.00;55.80
6556;DHT22;3311;48.32423000;14.29074500;2023-05-10T07:27:41;17.00;56.10
6556;DHT22;3311;48.32423000;14.29074500;2023-05-10T07:30:09;17.00;56.00
6556;DHT22;3311;48.32423000;14.29074500;2023-05-10T07:32:36;17.00;56.70
6556;DHT22;3311;48.32423000;14.29074500;2023-05-10T07:35:05;17.10;56.60
6556;DHT22;3311;48.32423000;14.29074500;2023-05-10T07:37:32;17.20;56.40
6556;DHT22;3311;48.32423000;14.29074500;2023-05-10T07:39:59;17.30;56.80
6556;DHT22;3311;48.32423000;14.29074500;2023-05-10T07:42:27;17.20;57.20
6556;DHT22;3311;48.32423000;14.29074500;2023-05-10T07:44:55;17.10;57.50
6556;DHT22;3311;48.32423000;14.29074500;2023-05-10T07:47:23;17.10;57.90
6556;DHT22;3311;48.32423000;14.29074500;2023-05-10T07:49:50;17.10;58.40
6556;DHT22;3311;48.32423000;14.29074500;2023-05-10T07:52:18;17.10;58.00
6556;DHT22;3311;48.32423000;14.29074500;2023-05-10T07:54:45;17.20;58.40
6556;DHT22;3311;48.32423000;14.29074500;2023-05-10T07:57:12;17.20;58.50
6556;DHT22;3311;48.32423000;14.29074500;2023-05-10T07:59:43;17.20;58.40
6556;DHT22;3311;48.32423000;14.29074500;2023-05-10T08:02:12;17.20;58.00
6556;DHT22;3311;48.32423000;14.29074500;2023-05-10T08:04:39;17.30;57.90
6556;DHT22;3311;48.32423000;14.29074500;2023-05-10T08:07:06;17.20;58.00
6556;DHT22;3311;48.32423000;14.29074500;2023-05-10T08:09:34;17.20;57.80
6556;DHT22;3311;48.32423000;14.29074500;2023-05-10T08:12:01;17.30;57.80
6556;DHT22;3311;48.32423000;14.29074500;2023-05-10T08:14:29;17.30;58.00
6556;DHT22;3311;48.32423000;14.29074500;2023-05-10T08:16:56;17.20;58.20
6556;DHT22;3311;48.32423000;14.29074500;2023-05-10T08:19:25;17.20;58.60
6556;DHT22;3311;48.32423000;14.29074500;2023-05-10T08:21:52;17.20;58.60
6556;DHT22;3311;48.32423000;14.29074500;2023-05-10T08:24:21;17.20;58.70
6556;DHT22;3311;48.32423000;14.29074500;2023-05-10T08:26:48;17.10;59.30
6556;DHT22;3311;48.32423000;14.29074500;2023-05-10T08:29:15;17.10;59.70
6556;DHT22;3311;48.32423000;14.29074500;2023-05-10T08:31:42;17.10;59.70
6556;DHT22;3311;48.32423000;14.29074500;2023-05-10T08:34:09;17.10;60.60
6556;DHT22;3311;48.32423000;14.29074500;2023-05-10T08:36:38;17.10;61.50
6556;DHT22;3311;48.32423000;14.29074500;2023-05-10T08:39:05;17.00;61.80
6556;DHT22;3311;48.32423000;14.29074500;2023-05-10T08:41:33;17.00;62.20
6556;DHT22;3311;48.32423000;14.29074500;2023-05-10T08:44:04;17.00;62.40
6556;DHT22;3311;48.32423000;14.29074500;2023-05-10T08:46:33;17.00;62.80
6556;DHT22;3311;48.32423000;14.29074500;2023-05-10T08:49:06;16.90;63.40
6556;DHT22;3311;48.32423000;14.29074500;2023-05-10T08:51:38;16.90;63.60
6556;DHT22;3311;48.32423000;14.29074500;2023-05-10T08:54:07;16.90;64.10
6556;DHT22;3311;48.32423000;14.29074500;2023-05-10T08:56:34;16.90;63.80
6556;DHT22;3311;48.32423000;14.29074500;2023-05-10T08:59:01;16.90;64.30
6556;DHT22;3311;48.32423000;14.29074500;2023-05-10T09:01:31;16.80;64.60
6556;DHT22;3311;48.32423000;14.29074500;2023-05-10T09:03:59;16.80;65.50
6556;DHT22;3311;48.32423000;14.29074500;2023-05-10T09:06:27;16.80;65.80
6556;DHT22;3311;48.32423000;14.29074500;2023-05-10T09:08:56;16.80;66.20
6556;DHT22;3311;48.32423000;14.29074500;2023-05-10T09:11:24;16.90;66.00
6556;DHT22;3311;48.32423000;14.29074500;2023-05-10T09:13:55;16.90;66.10
6556;DHT22;3311;48.32423000;14.29074500;2023-05-10T09:16:23;17.00;66.10
6556;DHT22;3311;48.32423000;14.29074500;2023-05-10T09:18:50;17.00;66.20
6556;DHT22;3311;48.32423000;14.29074500;2023-05-10T09:21:19;17.00;65.60
6556;DHT22;3311;48.32423000;14.29074500;2023-05-10T09:23:48;17.10;65.90
6556;DHT22;3311;48.32423000;14.29074500;2023-05-10T09:26:17;17.00;66.00
6556;DHT22;3311;48.32423000;14.29074500;2023-05-10T09:28:54;17.10;66.20
6556;DHT22;3311;48.32423000;14.29074500;2023-05-10T09:31:21;17.00;66.30
6556;DHT22;3311;48.32423000;14.29074500;2023-05-10T09:33:49;17.00;66.30
6556;DHT22;3311;48.32423000;14.29074500;2023-05-10T09:36:17;17.00;66.60
6556;DHT22;3311;48.32423000;14.29074500;2023-05-10T09:38:51;17.00;67.20
6556;DHT22;3311;48.32423000;14.29074500;2023-05-10T09:41:21;17.00;67.20
6556;DHT22;3311;48.32423000;14.29074500;2023-05-10T09:43:49;17.00;67.90
6556;DHT22;3311;48.32423000;14.29074500;2023-05-10T09:46:17;17.00;67.60
6556;DHT22;3311;48.32423000;14.29074500;2023-05-10T09:48:45;17.00;67.50
6556;DHT22;3311;48.32423000;14.29074500;2023-05-10T09:51:19;17.10;67.40
6556;DHT22;3311;48.32423000;14.29074500;2023-05-10T09:53:46;17.00;67.80
6556;DHT22;3311;48.32423000;14.29074500;2023-05-10T09:59:07;17.00;68.50
6556;DHT22;3311;48.32423000;14.29074500;2023-05-10T10:01:34;17.10;68.70
6556;DHT22;3311;48.32423000;14.29074500;2023-05-10T10:04:03;17.10;68.20
6556;DHT22;3311;48.32423000;14.29074500;2023-05-10T10:06:36;17.10;68.30
6556;DHT22;3311;48.32423000;14.29074500;2023-05-10T10:09:04;17.10;69.30
6556;DHT22;3311;48.32423000;14.29074500;2023-05-10T10:11:34;17.20;68.90
6556;DHT22;3311;48.32423000;14.29074500;2023-05-10T10:14:02;17.30;68.40
6556;DHT22;3311;48.32423000;14.29074500;2023-05-10T10:16:31;17.30;68.70
6556;DHT22;3311;48.32423000;14.29074500;2023-05-10T10:18:58;17.30;68.50
6556;DHT22;3311;48.32423000;14.29074500;2023-05-10T10:21:26;17.30;68.00
6556;DHT22;3311;48.32423000;14.29074500;2023-05-10T10:23:53;17.30;68.40
6556;DHT22;3311;48.32423000;14.29074500;2023-05-10T10:26:22;17.30;69.00
6556;DHT22;3311;48.32423000;14.29074500;2023-05-10T10:29:01;17.40;68.90
6556;DHT22;3311;48.32423000;14.29074500;2023-05-10T10:31:38;17.40;68.30
6556;DHT22;3311;48.32423000;14.29074500;2023-05-10T10:34:07;17.50;69.10
6556;DHT22;3311;48.32423000;14.29074500;2023-05-10T10:36:40;17.40;69.00
6556;DHT22;3311;48.32423000;14.29074500;2023-05-10T10:39:10;17.50;68.90
6556;DHT22;3311;48.32423000;14.29074500;2023-05-10T10:41:39;17.50;68.90
6556;DHT22;3311;48.32423000;14.29074500;2023-05-10T10:44:35;17.50;68.50
6556;DHT22;3311;48.32423000;14.29074500;2023-05-10T10:47:23;17.40;69.70
6556;DHT22;3311;48.32423000;14.29074500;2023-05-10T10:50:03;17.40;69.70
6556;DHT22;3311;48.32423000;14.29074500;2023-05-10T10:52:32;17.50;69.80
6556;DHT22;3311;48.32423000;14.29074500;2023-05-10T10:55:02;17.40;69.60
6556;DHT22;3311;48.32423000;14.29074500;2023-05-10T10:57:43;17.50;69.20
6556;DHT22;3311;48.32423000;14.29074500;2023-05-10T11:00:26;17.40;69.90
6556;DHT22;3311;48.32423000;14.29074500;2023-05-10T11:02:58;17.40;70.00
6556;DHT22;3311;48.32423000;14.29074500;2023-05-10T11:05:41;17.50;70.50
6556;DHT22;3311;48.32423000;14.29074500;2023-05-10T11:08:19;17.30;70.40
6556;DHT22;3311;48.32423000;14.29074500;2023-05-10T11:11:02;17.30;71.20
6556;DHT22;3311;48.32423000;14.29074500;2023-05-10T11:13:34;17.50;70.10
6556;DHT22;3311;48.32423000;14.29074500;2023-05-10T11:16:15;17.60;70.00
6556;DHT22;3311;48.32423000;14.29074500;2023-05-10T11:18:55;17.70;69.50
6556;DHT22;3311;48.32423000;14.29074500;2023-05-10T11:21:23;17.70;70.80
6556;DHT22;3311;48.32423000;14.29074500;2023-05-10T11:23:52;17.60;70.60
6556;DHT22;3311;48.32423000;14.29074500;2023-05-10T11:26:22;17.70;70.90
6556;DHT22;3311;48.32423000;14.29074500;2023-05-10T11:28:52;17.80;71.00
6556;DHT22;3311;48.32423000;14.29074500;2023-05-10T11:31:20;17.90;70.30
6556;DHT22;3311;48.32423000;14.29074500;2023-05-10T11:33:49;18.00;70.40
6556;DHT22;3311;48.32423000;14.29074500;2023-05-10T11:36:19;17.90;70.40
6556;DHT22;3311;48.32423000;14.29074500;2023-05-10T11:38:48;17.90;70.60
6556;DHT22;3311;48.32423000;14.29074500;2023-05-10T11:41:16;17.90;70.80
6556;DHT22;3311;48.32423000;14.29074500;2023-05-10T11:43:46;17.80;71.40
6556;DHT22;3311;48.32423000;14.29074500;2023-05-10T11:46:15;17.90;70.10
6556;DHT22;3311;48.32423000;14.29074500;2023-05-10T11:48:42;17.90;70.50
6556;DHT22;3311;48.32423000;14.29074500;2023-05-10T11:51:11;17.80;71.50
6556;DHT22;3311;48.32423000;14.29074500;2023-05-10T11:53:39;17.80;71.60
6556;DHT22;3311;48.32423000;14.29074500;2023-05-10T11:56:08;17.80;71.80
6556;DHT22;3311;48.32423000;14.29074500;2023-05-10T11:58:36;17.80;72.50
6556;DHT22;3311;48.32423000;14.29074500;2023-05-10T12:01:05;17.80;71.80
6556;DHT22;3311;48.32423000;14.29074500;2023-05-10T12:03:32;17.80;71.70
6556;DHT22;3311;48.32423000;14.29074500;2023-05-10T12:06:01;17.80;71.90
6556;DHT22;3311;48.32423000;14.29074500;2023-05-10T12:08:29;17.90;72.20
6556;DHT22;3311;48.32423000;14.29074500;2023-05-10T12:11:06;17.80;72.00
6556;DHT22;3311;48.32423000;14.29074500;2023-05-10T12:13:38;17.80;72.60
6556;DHT22;3311;48.32423000;14.29074500;2023-05-10T12:16:16;17.70;72.30
6556;DHT22;3311;48.32423000;14.29074500;2023-05-10T12:18:44;17.80;72.70
6556;DHT22;3311;48.32423000;14.29074500;2023-05-10T12:21:12;17.70;73.50
6556;DHT22;3311;48.32423000;14.29074500;2023-05-10T12:23:40;17.60;74.10
6556;DHT22;3311;48.32423000;14.29074500;2023-05-10T12:26:10;17.60;74.20
6556;DHT22;3311;48.32423000;14.29074500;2023-05-10T12:28:38;17.70;74.10
6556;DHT22;3311;48.32423000;14.29074500;2023-05-10T12:31:05;17.70;73.80
6556;DHT22;3311;48.32423000;14.29074500;2023-05-10T12:33:37;17.70;73.80
6556;DHT22;3311;48.32423000;14.29074500;2023-05-10T12:36:07;17.70;73.40
6556;DHT22;3311;48.32423000;14.29074500;2023-05-10T12:38:35;17.80;73.90
6556;DHT22;3311;48.32423000;14.29074500;2023-05-10T12:41:05;17.80;73.80
6556;DHT22;3311;48.32423000;14.29074500;2023-05-10T12:43:35;17.80;74.20
6556;DHT22;3311;48.32423000;14.29074500;2023-05-10T12:46:06;17.80;74.80
6556;DHT22;3311;48.32423000;14.29074500;2023-05-10T12:48:34;17.80;74.20
6556;DHT22;3311;48.32423000;14.29074500;2023-05-10T12:51:02;17.80;74.70
6556;DHT22;3311;48.32423000;14.29074500;2023-05-10T12:53:29;17.70;74.90
6556;DHT22;3311;48.32423000;14.29074500;2023-05-10T12:55:57;17.70;74.80
6556;DHT22;3311;48.32423000;14.29074500;2023-05-10T12:58:24;17.70;74.60
6556;DHT22;3311;48.32423000;14.29074500;2023-05-10T13:00:53;17.70;75.00
6556;DHT22;3311;48.32423000;14.29074500;2023-05-10T13:03:22;17.70;75.40
6556;DHT22;3311;48.32423000;14.29074500;2023-05-10T13:05:49;17.70;75.30
6556;DHT22;3311;48.32423000;14.29074500;2023-05-10T13:08:16;17.70;75.90
6556;DHT22;3311;48.32423000;14.29074500;2023-05-10T13:10:43;17.60;76.80
6556;DHT22;3311;48.32423000;14.29074500;2023-05-10T13:13:10;17.70;75.20
6556;DHT22;3311;48.32423000;14.29074500;2023-05-10T13:15:37;17.70;75.60
6556;DHT22;3311;48.32423000;14.29074500;2023-05-10T13:18:06;17.70;75.90
6556;DHT22;3311;48.32423000;14.29074500;2023-05-10T13:20:33;17.80;75.70
6556;DHT22;3311;48.32423000;14.29074500;2023-05-10T13:23:00;17.80;75.30
6556;DHT22;3311;48.32423000;14.29074500;2023-05-10T13:25:28;17.80;76.00
6556;DHT22;3311;48.32423000;14.29074500;2023-05-10T13:27:55;17.80;75.30
6556;DHT22;3311;48.32423000;14.29074500;2023-05-10T13:30:22;17.80;76.00
6556;DHT22;3311;48.32423000;14.29074500;2023-05-10T13:32:50;17.80;76.50
6556;DHT22;3311;48.32423000;14.29074500;2023-05-10T13:35:19;17.80;76.30
6556;DHT22;3311;48.32423000;14.29074500;2023-05-10T13:37:46;17.90;75.50
6556;DHT22;3311;48.32423000;14.29074500;2023-05-10T13:40:13;17.90;75.20
6556;DHT22;3311;48.32423000;14.29074500;2023-05-10T13:42:41;17.40;75.80
6556;DHT22;3311;48.32423000;14.29074500;2023-05-10T13:45:10;17.80;76.80
6556;DHT22;3311;48.32423000;14.29074500;2023-05-10T13:47:38;17.90;76.50
6556;DHT22;3311;48.32423000;14.29074500;2023-05-10T13:50:06;17.90;77.10
6556;DHT22;3311;48.32423000;14.29074500;2023-05-10T13:52:35;17.90;76.90
6556;DHT22;3311;48.32423000;14.29074500;2023-05-10T13:55:02;17.90;76.80